sensor_id;sensor_type;location;lat;lon;timestamp;temperature;humidity
72756;SHT30;60881;55.002;73.232;2022-11-20T00:03:46;-14.22;68.09
72756;SHT30;60881;55.002;73.232;2022-11-20T00:06:23;-14.28;68.08
72756;SHT30;60881;55.002;73.232;2022-11-20T00:08:49;-14.25;68.00
72756;SHT30;60881;55.002;73.232;2022-11-20T00:11:18;-14.20;67.77
72756;SHT30;60881;55.002;73.232;2022-11-20T00:13:45;-14.21;67.32
72756;SHT30;60881;55.002;73.232;2022-11-20T00:16:22;-14.34;67.50
72756;SHT30;60881;55.002;73.232;2022-11-20T00:18:49;-14.40;68.08
72756;SHT30;60881;55.002;73.232;2022-11-20T00:21:26;-14.42;68.50
72756;SHT30;60881;55.002;73.232;2022-11-20T00:23:54;-14.41;68.93
72756;SHT30;60881;55.002;73.232;2022-11-20T00:26:31;-14.35;68.41
72756;SHT30;60881;55.002;73.232;2022-11-20T00:28:58;-14.31;68.64
72756;SHT30;60881;55.002;73.232;2022-11-20T00:31:25;-14.22;68.42
72756;SHT30;60881;55.002;73.232;2022-11-20T00:33:51;-14.35;68.55
72756;SHT30;60881;55.002;73.232;2022-11-20T00:36:29;-14.40;68.55
72756;SHT30;60881;55.002;73.232;2022-11-20T00:38:57;-14.35;68.39
72756;SHT30;60881;55.002;73.232;2022-11-20T00:41:24;-14.32;68.55
72756;SHT30;60881;55.002;73.232;2022-11-20T00:43:51;-14.46;68.51
72756;SHT30;60881;55.002;73.232;2022-11-20T00:46:20;-14.51;68.99
72756;SHT30;60881;55.002;73.232;2022-11-20T00:48:53;-14.45;68.87
72756;SHT30;60881;55.002;73.232;2022-11-20T00:51:23;-14.44;69.03
72756;SHT30;60881;55.002;73.232;2022-11-20T00:53:55;-14.41;68.79
72756;SHT30;60881;55.002;73.232;2022-11-20T00:56:21;-14.37;68.68
72756;SHT30;60881;55.002;73.232;2022-11-20T00:58:48;-14.30;68.28
72756;SHT30;60881;55.002;73.232;2022-11-20T01:01:25;-14.32;68.01
72756;SHT30;60881;55.002;73.232;2022-11-20T01:03:56;-14.27;68.00
72756;SHT30;60881;55.002;73.232;2022-11-20T01:06:34;-14.21;67.84
72756;SHT30;60881;55.002;73.232;2022-11-20T01:09:04;-14.32;67.94
72756;SHT30;60881;55.002;73.232;2022-11-20T01:11:31;-14.34;68.09
72756;SHT30;60881;55.002;73.232;2022-11-20T01:14:03;-14.32;68.20
72756;SHT30;60881;55.002;73.232;2022-11-20T01:16:31;-14.27;67.78
72756;SHT30;60881;55.002;73.232;2022-11-20T01:19:04;-14.27;67.42
72756;SHT30;60881;55.002;73.232;2022-11-20T01:21:32;-14.28;67.55
72756;SHT30;60881;55.002;73.232;2022-11-20T01:23:59;-14.20;67.30
72756;SHT30;60881;55.002;73.232;2022-11-20T01:26:29;-14.18;66.87
72756;SHT30;60881;55.002;73.232;2022-11-20T01:29:01;-14.08;66.42
72756;SHT30;60881;55.002;73.232;2022-11-20T01:33:55;-14.06;66.12
72756;SHT30;60881;55.002;73.232;2022-11-20T01:36:22;-14.03;66.35
72756;SHT30;60881;55.002;73.232;2022-11-20T01:38:59;-14.03;65.85
72756;SHT30;60881;55.002;73.232;2022-11-20T01:41:27;-14.01;65.27
72756;SHT30;60881;55.002;73.232;2022-11-20T01:44:13;-14.03;65.34
72756;SHT30;60881;55.002;73.232;2022-11-20T01:49:20;-14.04;64.96
72756;SHT30;60881;55.002;73.232;2022-11-20T01:51:57;-14.10;65.45
72756;SHT30;60881;55.002;73.232;2022-11-20T01:54:29;-14.07;65.10
72756;SHT30;60881;55.002;73.232;2022-11-20T01:56:59;-14.10;65.20
72756;SHT30;60881;55.002;73.232;2022-11-20T01:59:32;-14.08;65.26
72756;SHT30;60881;55.002;73.232;2022-11-20T02:02:00;-14.06;65.14
72756;SHT30;60881;55.002;73.232;2022-11-20T02:04:26;-14.16;65.45
72756;SHT30;60881;55.002;73.232;2022-11-20T02:07:02;-14.17;65.43
72756;SHT30;60881;55.002;73.232;2022-11-20T02:09:35;-14.18;65.36
72756;SHT30;60881;55.002;73.232;2022-11-20T02:12:01;-14.24;65.29
72756;SHT30;60881;55.002;73.232;2022-11-20T02:14:33;-14.18;65.13
72756;SHT30;60881;55.002;73.232;2022-11-20T02:17:00;-14.27;65.06
72756;SHT30;60881;55.002;73.232;2022-11-20T02:19:30;-14.27;65.16
72756;SHT30;60881;55.002;73.232;2022-11-20T02:24:30;-14.38;64.85
72756;SHT30;60881;55.002;73.232;2022-11-20T02:27:01;-14.38;64.85
72756;SHT30;60881;55.002;73.232;2022-11-20T02:32:19;-14.44;64.47
72756;SHT30;60881;55.002;73.232;2022-11-20T02:34:45;-14.44;64.56
72756;SHT30;60881;55.002;73.232;2022-11-20T02:37:12;-14.24;64.04
72756;SHT30;60881;55.002;73.232;2022-11-20T02:39:40;-14.08;63.58
72756;SHT30;60881;55.002;73.232;2022-11-20T02:42:08;-14.16;63.53
72756;SHT30;60881;55.002;73.232;2022-11-20T02:44:35;-14.16;63.15
72756;SHT30;60881;55.002;73.232;2022-11-20T02:47:02;-14.11;63.00
72756;SHT30;60881;55.002;73.232;2022-11-20T02:49:28;-14.20;62.49
72756;SHT30;60881;55.002;73.232;2022-11-20T02:51:55;-14.27;62.77
72756;SHT30;60881;55.002;73.232;2022-11-20T02:54:21;-14.40;62.99
72756;SHT30;60881;55.002;73.232;2022-11-20T02:56:48;-14.52;63.37
72756;SHT30;60881;55.002;73.232;2022-11-20T02:59:25;-14.54;63.27
72756;SHT30;60881;55.002;73.232;2022-11-20T03:01:52;-14.58;63.38
72756;SHT30;60881;55.002;73.232;2022-11-20T03:04:22;-14.68;63.75
72756;SHT30;60881;55.002;73.232;2022-11-20T03:06:48;-14.56;64.17
72756;SHT30;60881;55.002;73.232;2022-11-20T03:09:14;-14.58;63.52
72756;SHT30;60881;55.002;73.232;2022-11-20T03:11:45;-14.61;63.80
72756;SHT30;60881;55.002;73.232;2022-11-20T03:14:11;-14.62;63.69
72756;SHT30;60881;55.002;73.232;2022-11-20T03:16:38;-14.66;63.79
72756;SHT30;60881;55.002;73.232;2022-11-20T03:19:09;-14.64;64.14
72756;SHT30;60881;55.002;73.232;2022-11-20T03:21:46;-14.58;63.93
72756;SHT30;60881;55.002;73.232;2022-11-20T03:24:13;-14.56;63.90
72756;SHT30;60881;55.002;73.232;2022-11-20T03:26:39;-14.56;63.85
72756;SHT30;60881;55.002;73.232;2022-11-20T03:29:07;-14.48;63.78
72756;SHT30;60881;55.002;73.232;2022-11-20T03:31:37;-14.37;63.36
72756;SHT30;60881;55.002;73.232;2022-11-20T03:34:06;-14.31;63.04
72756;SHT30;60881;55.002;73.232;2022-11-20T03:36:33;-14.22;62.69
72756;SHT30;60881;55.002;73.232;2022-11-20T03:38:59;-14.13;62.74
72756;SHT30;60881;55.002;73.232;2022-11-20T03:41:36;-14.20;62.50
72756;SHT30;60881;55.002;73.232;2022-11-20T03:44:03;-14.22;62.71
72756;SHT30;60881;55.002;73.232;2022-11-20T03:46:30;-14.25;62.56
72756;SHT30;60881;55.002;73.232;2022-11-20T03:49:01;-14.10;62.66
72756;SHT30;60881;55.002;73.232;2022-11-20T03:51:28;-14.13;62.74
72756;SHT30;60881;55.002;73.232;2022-11-20T03:53:57;-14.21;62.68
72756;SHT30;60881;55.002;73.232;2022-11-20T03:56:26;-14.27;62.47
72756;SHT30;60881;55.002;73.232;2022-11-20T03:58:52;-14.22;62.68
72756;SHT30;60881;55.002;73.232;2022-11-20T04:01:30;-14.08;62.50
72756;SHT30;60881;55.002;73.232;2022-11-20T04:03:56;-13.98;62.09
72756;SHT30;60881;55.002;73.232;2022-11-20T04:06:34;-13.98;62.48
72756;SHT30;60881;55.002;73.232;2022-11-20T04:09:00;-13.88;62.31
72756;SHT30;60881;55.002;73.232;2022-11-20T04:11:28;-13.88;62.19
72756;SHT30;60881;55.002;73.232;2022-11-20T04:13:56;-13.74;62.12
72756;SHT30;60881;55.002;73.232;2022-11-20T04:16:23;-13.71;61.51
72756;SHT30;60881;55.002;73.232;2022-11-20T04:19:00;-13.67;61.35
72756;SHT30;60881;55.002;73.232;2022-11-20T04:21:37;-13.59;61.45
72756;SHT30;60881;55.002;73.232;2022-11-20T04:24:06;-13.47;61.16
72756;SHT30;60881;55.002;73.232;2022-11-20T04:26:32;-13.38;61.04
72756;SHT30;60881;55.002;73.232;2022-11-20T04:28:59;-13.38;60.26
72756;SHT30;60881;55.002;73.232;2022-11-20T04:31:28;-13.23;60.60
72756;SHT30;60881;55.002;73.232;2022-11-20T04:33:55;-13.16;59.95
72756;SHT30;60881;55.002;73.232;2022-11-20T04:36:25;-13.25;59.82
72756;SHT30;60881;55.002;73.232;2022-11-20T04:39:00;-13.14;59.46
72756;SHT30;60881;55.002;73.232;2022-11-20T04:41:29;-12.96;59.27
72756;SHT30;60881;55.002;73.232;2022-11-20T04:43:58;-12.81;58.52
72756;SHT30;60881;55.002;73.232;2022-11-20T04:46:29;-12.80;57.79
72756;SHT30;60881;55.002;73.232;2022-11-20T04:48:55;-12.70;57.21
72756;SHT30;60881;55.002;73.232;2022-11-20T04:51:21;-12.48;57.54
72756;SHT30;60881;55.002;73.232;2022-11-20T04:53:48;-12.37;57.02
72756;SHT30;60881;55.002;73.232;2022-11-20T04:56:24;-12.38;57.34
72756;SHT30;60881;55.002;73.232;2022-11-20T04:58:59;-12.30;56.91
72756;SHT30;60881;55.002;73.232;2022-11-20T05:01:26;-12.32;56.86
72756;SHT30;60881;55.002;73.232;2022-11-20T05:04:02;-12.19;56.88
72756;SHT30;60881;55.002;73.232;2022-11-20T05:06:29;-12.05;56.05
72756;SHT30;60881;55.002;73.232;2022-11-20T05:08:55;-12.02;55.38
72756;SHT30;60881;55.002;73.232;2022-11-20T05:11:21;-11.89;55.84
72756;SHT30;60881;55.002;73.232;2022-11-20T05:13:48;-11.97;55.41
72756;SHT30;60881;55.002;73.232;2022-11-20T05:16:20;-11.97;55.93
72756;SHT30;60881;55.002;73.232;2022-11-20T05:18:48;-11.94;56.06
72756;SHT30;60881;55.002;73.232;2022-11-20T05:21:21;-11.89;55.78
72756;SHT30;60881;55.002;73.232;2022-11-20T05:23:47;-12.03;55.98
72756;SHT30;60881;55.002;73.232;2022-11-20T05:26:15;-11.99;56.43
72756;SHT30;60881;55.002;73.232;2022-11-20T05:28:46;-12.09;56.82
72756;SHT30;60881;55.002;73.232;2022-11-20T05:31:17;-12.06;56.80
72756;SHT30;60881;55.002;73.232;2022-11-20T05:33:45;-12.09;56.75
72756;SHT30;60881;55.002;73.232;2022-11-20T05:36:12;-12.02;56.84
72756;SHT30;60881;55.002;73.232;2022-11-20T05:38:39;-12.05;57.30
72756;SHT30;60881;55.002;73.232;2022-11-20T05:41:16;-11.91;57.66
72756;SHT30;60881;55.002;73.232;2022-11-20T05:43:48;-11.83;57.73
72756;SHT30;60881;55.002;73.232;2022-11-20T05:46:20;-11.75;57.77
72756;SHT30;60881;55.002;73.232;2022-11-20T05:48:46;-11.76;57.21
72756;SHT30;60881;55.002;73.232;2022-11-20T05:51:15;-11.65;57.09
72756;SHT30;60881;55.002;73.232;2022-11-20T05:53:42;-11.65;57.30
72756;SHT30;60881;55.002;73.232;2022-11-20T05:56:15;-11.69;57.33
72756;SHT30;60881;55.002;73.232;2022-11-20T05:58:42;-11.56;57.50
72756;SHT30;60881;55.002;73.232;2022-11-20T06:01:10;-11.56;57.74
72756;SHT30;60881;55.002;73.232;2022-11-20T06:03:46;-11.51;57.69
72756;SHT30;60881;55.002;73.232;2022-11-20T06:06:13;-11.49;57.45
72756;SHT30;60881;55.002;73.232;2022-11-20T06:08:40;-11.45;57.81
72756;SHT30;60881;55.002;73.232;2022-11-20T06:11:13;-11.38;57.95
72756;SHT30;60881;55.002;73.232;2022-11-20T06:13:49;-11.38;57.66
72756;SHT30;60881;55.002;73.232;2022-11-20T06:16:16;-11.30;58.05
72756;SHT30;60881;55.002;73.232;2022-11-20T06:18:44;-11.27;57.74
72756;SHT30;60881;55.002;73.232;2022-11-20T06:21:11;-11.35;58.22
72756;SHT30;60881;55.002;73.232;2022-11-20T06:23:40;-11.31;58.49
72756;SHT30;60881;55.002;73.232;2022-11-20T06:26:16;-11.36;58.47
72756;SHT30;60881;55.002;73.232;2022-11-20T06:28:43;-11.46;59.26
72756;SHT30;60881;55.002;73.232;2022-11-20T06:31:10;-11.46;59.57
72756;SHT30;60881;55.002;73.232;2022-11-20T06:33:38;-11.48;59.78
72756;SHT30;60881;55.002;73.232;2022-11-20T06:36:04;-11.41;60.45
72756;SHT30;60881;55.002;73.232;2022-11-20T06:38:31;-11.32;60.49
72756;SHT30;60881;55.002;73.232;2022-11-20T06:41:10;-11.41;60.40
72756;SHT30;60881;55.002;73.232;2022-11-20T06:43:47;-11.39;60.83
72756;SHT30;60881;55.002;73.232;2022-11-20T06:46:14;-11.45;61.35
72756;SHT30;60881;55.002;73.232;2022-11-20T06:48:43;-11.41;61.32
72756;SHT30;60881;55.002;73.232;2022-11-20T06:51:09;-11.31;61.52
72756;SHT30;60881;55.002;73.232;2022-11-20T06:53:36;-11.24;61.69
72756;SHT30;60881;55.002;73.232;2022-11-20T06:56:03;-11.20;61.54
72756;SHT30;60881;55.002;73.232;2022-11-20T06:58:31;-11.17;61.62
72756;SHT30;60881;55.002;73.232;2022-11-20T07:01:01;-11.12;61.77
72756;SHT30;60881;55.002;73.232;2022-11-20T07:03:30;-11.11;61.79
72756;SHT30;60881;55.002;73.232;2022-11-20T07:06:07;-10.89;61.64
72756;SHT30;60881;55.002;73.232;2022-11-20T07:08:34;-10.75;61.19
72756;SHT30;60881;55.002;73.232;2022-11-20T07:11:07;-10.68;60.83
72756;SHT30;60881;55.002;73.232;2022-11-20T07:13:33;-10.56;60.92
72756;SHT30;60881;55.002;73.232;2022-11-20T07:16:00;-10.70;61.00
72756;SHT30;60881;55.002;73.232;2022-11-20T07:18:27;-10.56;60.89
72756;SHT30;60881;55.002;73.232;2022-11-20T07:20:53;-10.49;60.62
72756;SHT30;60881;55.002;73.232;2022-11-20T07:23:20;-10.36;60.60
72756;SHT30;60881;55.002;73.232;2022-11-20T07:25:46;-10.25;60.30
72756;SHT30;60881;55.002;73.232;2022-11-20T07:28:14;-10.09;59.67
72756;SHT30;60881;55.002;73.232;2022-11-20T07:30:40;-10.02;59.07
72756;SHT30;60881;55.002;73.232;2022-11-20T07:33:07;-9.98;58.94
72756;SHT30;60881;55.002;73.232;2022-11-20T07:35:33;-9.85;59.03
72756;SHT30;60881;55.002;73.232;2022-11-20T07:38:02;-9.73;58.49
72756;SHT30;60881;55.002;73.232;2022-11-20T07:40:30;-9.66;57.71
72756;SHT30;60881;55.002;73.232;2022-11-20T07:43:02;-9.75;57.30
72756;SHT30;60881;55.002;73.232;2022-11-20T07:45:28;-9.82;57.25
72756;SHT30;60881;55.002;73.232;2022-11-20T07:47:59;-9.79;57.87
72756;SHT30;60881;55.002;73.232;2022-11-20T07:50:31;-9.58;57.36
72756;SHT30;60881;55.002;73.232;2022-11-20T07:53:04;-9.69;56.70
72756;SHT30;60881;55.002;73.232;2022-11-20T07:55:40;-9.62;56.84
72756;SHT30;60881;55.002;73.232;2022-11-20T07:58:07;-9.58;56.96
72756;SHT30;60881;55.002;73.232;2022-11-20T08:00:34;-9.48;56.58
72756;SHT30;60881;55.002;73.232;2022-11-20T08:03:04;-9.51;56.03
72756;SHT30;60881;55.002;73.232;2022-11-20T08:05:32;-9.51;56.14
72756;SHT30;60881;55.002;73.232;2022-11-20T08:07:58;-9.51;56.16
72756;SHT30;60881;55.002;73.232;2022-11-20T08:10:25;-9.54;56.33
72756;SHT30;60881;55.002;73.232;2022-11-20T08:12:52;-9.45;56.21
72756;SHT30;60881;55.002;73.232;2022-11-20T08:15:37;-9.39;56.04
72756;SHT30;60881;55.002;73.232;2022-11-20T08:18:10;-9.49;55.68
72756;SHT30;60881;55.002;73.232;2022-11-20T08:20:40;-9.48;55.67
72756;SHT30;60881;55.002;73.232;2022-11-20T08:23:07;-9.44;55.88
72756;SHT30;60881;55.002;73.232;2022-11-20T08:25:36;-9.37;55.94
72756;SHT30;60881;55.002;73.232;2022-11-20T08:28:12;-9.13;55.17
72756;SHT30;60881;55.002;73.232;2022-11-20T08:30:39;-8.99;55.07
72756;SHT30;60881;55.002;73.232;2022-11-20T08:33:08;-9.05;54.81
72756;SHT30;60881;55.002;73.232;2022-11-20T08:35:35;-9.28;54.86
72756;SHT30;60881;55.002;73.232;2022-11-20T08:38:02;-9.35;55.14
72756;SHT30;60881;55.002;73.232;2022-11-20T08:40:30;-9.39;55.86
72756;SHT30;60881;55.002;73.232;2022-11-20T08:42:56;-9.37;55.77
72756;SHT30;60881;55.002;73.232;2022-11-20T08:45:23;-9.34;54.56
72756;SHT30;60881;55.002;73.232;2022-11-20T08:47:51;-9.37;54.87
72756;SHT30;60881;55.002;73.232;2022-11-20T08:50:17;-9.32;54.81
72756;SHT30;60881;55.002;73.232;2022-11-20T08:52:54;-9.35;54.34
72756;SHT30;60881;55.002;73.232;2022-11-20T08:55:27;-9.34;54.76
72756;SHT30;60881;55.002;73.232;2022-11-20T08:57:53;-9.27;54.37
72756;SHT30;60881;55.002;73.232;2022-11-20T09:00:20;-9.24;54.25
72756;SHT30;60881;55.002;73.232;2022-11-20T09:02:46;-9.18;53.65
72756;SHT30;60881;55.002;73.232;2022-11-20T09:05:12;-9.21;53.62
72756;SHT30;60881;55.002;73.232;2022-11-20T09:07:44;-9.18;53.66
72756;SHT30;60881;55.002;73.232;2022-11-20T09:10:12;-9.13;53.67
72756;SHT30;60881;55.002;73.232;2022-11-20T09:12:40;-9.13;53.79
72756;SHT30;60881;55.002;73.232;2022-11-20T09:15:11;-8.97;53.37
72756;SHT30;60881;55.002;73.232;2022-11-20T09:17:39;-9.10;53.02
72756;SHT30;60881;55.002;73.232;2022-11-20T09:20:05;-9.08;53.19
72756;SHT30;60881;55.002;73.232;2022-11-20T09:22:31;-9.04;53.49
72756;SHT30;60881;55.002;73.232;2022-11-20T09:24:58;-9.20;53.91
72756;SHT30;60881;55.002;73.232;2022-11-20T09:27:24;-9.37;53.94
72756;SHT30;60881;55.002;73.232;2022-11-20T09:29:50;-9.31;54.32
72756;SHT30;60881;55.002;73.232;2022-11-20T09:32:18;-9.07;54.00
72756;SHT30;60881;55.002;73.232;2022-11-20T09:34:44;-8.96;54.62
72756;SHT30;60881;55.002;73.232;2022-11-20T09:37:10;-8.97;54.38
72756;SHT30;60881;55.002;73.232;2022-11-20T09:39:36;-9.04;54.32
72756;SHT30;60881;55.002;73.232;2022-11-20T09:44:49;-9.05;55.47
72756;SHT30;60881;55.002;73.232;2022-11-20T09:47:52;-9.07;55.31
72756;SHT30;60881;55.002;73.232;2022-11-20T09:53:11;-9.00;55.50
72756;SHT30;60881;55.002;73.232;2022-11-20T09:55:38;-9.00;55.03
72756;SHT30;60881;55.002;73.232;2022-11-20T09:58:06;-8.96;55.28
72756;SHT30;60881;55.002;73.232;2022-11-20T10:00:34;-8.80;55.79
72756;SHT30;60881;55.002;73.232;2022-11-20T10:03:02;-8.80;55.97
72756;SHT30;60881;55.002;73.232;2022-11-20T10:05:51;-9.04;56.90
72756;SHT30;60881;55.002;73.232;2022-11-20T10:11:23;-9.20;57.47
72756;SHT30;60881;55.002;73.232;2022-11-20T10:13:43;-9.35;57.95
72756;SHT30;60881;55.002;73.232;2022-11-20T10:29:39;-9.38;58.86
72756;SHT30;60881;55.002;73.232;2022-11-20T10:32:17;-9.25;58.74
72756;SHT30;60881;55.002;73.232;2022-11-20T10:34:50;-9.35;58.59
72756;SHT30;60881;55.002;73.232;2022-11-20T10:37:24;-9.28;58.46
72756;SHT30;60881;55.002;73.232;2022-11-20T10:42:30;-9.34;57.57
72756;SHT30;60881;55.002;73.232;2022-11-20T10:45:02;-9.30;57.52
72756;SHT30;60881;55.002;73.232;2022-11-20T10:47:36;-9.39;58.05
72756;SHT30;60881;55.002;73.232;2022-11-20T10:50:04;-9.47;58.56
72756;SHT30;60881;55.002;73.232;2022-11-20T10:57:31;-9.62;58.59
72756;SHT30;60881;55.002;73.232;2022-11-20T11:00:09;-9.58;59.02
72756;SHT30;60881;55.002;73.232;2022-11-20T11:02:47;-9.49;58.47
72756;SHT30;60881;55.002;73.232;2022-11-20T11:07:48;-9.51;58.30
72756;SHT30;60881;55.002;73.232;2022-11-20T11:10:22;-9.56;58.58
72756;SHT30;60881;55.002;73.232;2022-11-20T11:12:50;-9.63;58.74
72756;SHT30;60881;55.002;73.232;2022-11-20T11:17:59;-9.85;58.87
72756;SHT30;60881;55.002;73.232;2022-11-20T11:20:30;-9.79;59.68
72756;SHT30;60881;55.002;73.232;2022-11-20T11:22:57;-9.61;58.93
72756;SHT30;60881;55.002;73.232;2022-11-20T11:25:32;-9.68;58.32
72756;SHT30;60881;55.002;73.232;2022-11-20T11:28:02;-9.81;58.32
72756;SHT30;60881;55.002;73.232;2022-11-20T11:30:41;-9.71;58.70
72756;SHT30;60881;55.002;73.232;2022-11-20T11:33:17;-9.56;58.14
72756;SHT30;60881;55.002;73.232;2022-11-20T11:35:45;-9.48;57.78
72756;SHT30;60881;55.002;73.232;2022-11-20T11:38:16;-9.61;58.33
72756;SHT30;60881;55.002;73.232;2022-11-20T11:40:43;-9.52;57.97
72756;SHT30;60881;55.002;73.232;2022-11-20T11:43:34;-9.51;57.84
72756;SHT30;60881;55.002;73.232;2022-11-20T11:49:00;-9.32;57.47
72756;SHT30;60881;55.002;73.232;2022-11-20T11:51:34;-9.38;57.16
72756;SHT30;60881;55.002;73.232;2022-11-20T11:54:05;-9.31;57.09
72756;SHT30;60881;55.002;73.232;2022-11-20T11:56:42;-9.20;56.05
72756;SHT30;60881;55.002;73.232;2022-11-20T11:59:10;-9.17;56.21
72756;SHT30;60881;55.002;73.232;2022-11-20T12:07:07;-9.47;57.47
72756;SHT30;60881;55.002;73.232;2022-11-20T12:09:38;-9.54;57.70
72756;SHT30;60881;55.002;73.232;2022-11-20T12:12:17;-9.58;58.12
72756;SHT30;60881;55.002;73.232;2022-11-20T12:14:46;-9.55;58.66
72756;SHT30;60881;55.002;73.232;2022-11-20T12:17:12;-9.56;58.22
72756;SHT30;60881;55.002;73.232;2022-11-20T12:19:39;-9.68;58.34
72756;SHT30;60881;55.002;73.232;2022-11-20T12:30:12;-9.72;58.66
72756;SHT30;60881;55.002;73.232;2022-11-20T12:35:25;-9.66;58.36
72756;SHT30;60881;55.002;73.232;2022-11-20T12:43:43;-9.62;58.07
72756;SHT30;60881;55.002;73.232;2022-11-20T12:46:42;-9.68;58.47
72756;SHT30;60881;55.002;73.232;2022-11-20T12:57:07;-9.58;57.91
72756;SHT30;60881;55.002;73.232;2022-11-20T13:02:18;-9.45;58.38
72756;SHT30;60881;55.002;73.232;2022-11-20T13:07:32;-9.51;57.27
72756;SHT30;60881;55.002;73.232;2022-11-20T13:13:12;-9.69;58.12
72756;SHT30;60881;55.002;73.232;2022-11-20T13:18:11;-9.59;57.91
72756;SHT30;60881;55.002;73.232;2022-11-20T13:20:46;-9.62;58.07
72756;SHT30;60881;55.002;73.232;2022-11-20T13:23:26;-9.59;57.65
72756;SHT30;60881;55.002;73.232;2022-11-20T13:26:14;-9.58;57.21
72756;SHT30;60881;55.002;73.232;2022-11-20T13:28:45;-9.59;57.06
72756;SHT30;60881;55.002;73.232;2022-11-20T13:31:24;-9.69;57.11
72756;SHT30;60881;55.002;73.232;2022-11-20T13:34:06;-9.68;57.41
72756;SHT30;60881;55.002;73.232;2022-11-20T13:36:32;-9.69;57.05
72756;SHT30;60881;55.002;73.232;2022-11-20T13:39:00;-9.73;57.17
72756;SHT30;60881;55.002;73.232;2022-11-20T13:44:05;-9.56;56.50
72756;SHT30;60881;55.002;73.232;2022-11-20T13:46:36;-9.58;56.07
72756;SHT30;60881;55.002;73.232;2022-11-20T13:49:08;-9.63;56.12
72756;SHT30;60881;55.002;73.232;2022-11-20T13:54:11;-9.58;56.23
72756;SHT30;60881;55.002;73.232;2022-11-20T14:01:45;-9.81;56.63
72756;SHT30;60881;55.002;73.232;2022-11-20T14:04:15;-9.83;56.30
72756;SHT30;60881;55.002;73.232;2022-11-20T14:06:42;-9.88;56.66
72756;SHT30;60881;55.002;73.232;2022-11-20T14:09:24;-9.76;56.08
72756;SHT30;60881;55.002;73.232;2022-11-20T14:11:57;-9.79;55.92
72756;SHT30;60881;55.002;73.232;2022-11-20T14:14:29;-9.91;56.08
72756;SHT30;60881;55.002;73.232;2022-11-20T14:17:06;-9.91;56.23
72756;SHT30;60881;55.002;73.232;2022-11-20T14:19:33;-10.03;55.99
72756;SHT30;60881;55.002;73.232;2022-11-20T14:22:32;-10.15;56.39
72756;SHT30;60881;55.002;73.232;2022-11-20T14:25:06;-10.50;57.29
72756;SHT30;60881;55.002;73.232;2022-11-20T14:27:33;-10.63;57.64
72756;SHT30;60881;55.002;73.232;2022-11-20T14:30:00;-10.61;57.96
72756;SHT30;60881;55.002;73.232;2022-11-20T14:32:27;-10.53;57.96
72756;SHT30;60881;55.002;73.232;2022-11-20T14:34:55;-10.60;57.69
72756;SHT30;60881;55.002;73.232;2022-11-20T14:37:30;-10.65;57.94
72756;SHT30;60881;55.002;73.232;2022-11-20T14:40:00;-10.68;58.06
72756;SHT30;60881;55.002;73.232;2022-11-20T14:42:27;-10.80;58.00
72756;SHT30;60881;55.002;73.232;2022-11-20T14:44:59;-10.85;58.08
72756;SHT30;60881;55.002;73.232;2022-11-20T14:47:26;-10.92;58.39
72756;SHT30;60881;55.002;73.232;2022-11-20T14:49:54;-11.11;58.79
72756;SHT30;60881;55.002;73.232;2022-11-20T14:52:27;-11.20;59.18
72756;SHT30;60881;55.002;73.232;2022-11-20T14:54:55;-11.15;59.34
72756;SHT30;60881;55.002;73.232;2022-11-20T14:57:31;-11.20;59.03
72756;SHT30;60881;55.002;73.232;2022-11-20T15:02:47;-11.21;59.44
72756;SHT30;60881;55.002;73.232;2022-11-20T15:05:14;-11.28;59.15
72756;SHT30;60881;55.002;73.232;2022-11-20T15:07:42;-11.27;59.46
72756;SHT30;60881;55.002;73.232;2022-11-20T15:10:12;-11.21;59.33
72756;SHT30;60881;55.002;73.232;2022-11-20T15:15:35;-11.28;59.87
72756;SHT30;60881;55.002;73.232;2022-11-20T15:18:02;-11.32;59.73
72756;SHT30;60881;55.002;73.232;2022-11-20T15:20:32;-11.36;59.67
72756;SHT30;60881;55.002;73.232;2022-11-20T15:23:11;-11.49;60.19
72756;SHT30;60881;55.002;73.232;2022-11-20T15:25:37;-11.38;60.50
72756;SHT30;60881;55.002;73.232;2022-11-20T15:28:04;-11.25;59.80
72756;SHT30;60881;55.002;73.232;2022-11-20T15:30:31;-11.18;59.51
72756;SHT30;60881;55.002;73.232;2022-11-20T15:33:07;-11.20;59.28
72756;SHT30;60881;55.002;73.232;2022-11-20T15:35:35;-11.32;59.42
72756;SHT30;60881;55.002;73.232;2022-11-20T15:38:12;-11.38;59.90
72756;SHT30;60881;55.002;73.232;2022-11-20T15:40:38;-11.48;60.07
72756;SHT30;60881;55.002;73.232;2022-11-20T15:43:06;-11.51;60.36
72756;SHT30;60881;55.002;73.232;2022-11-20T15:45:46;-11.49;60.35
72756;SHT30;60881;55.002;73.232;2022-11-20T15:48:14;-11.54;60.59
72756;SHT30;60881;55.002;73.232;2022-11-20T15:51:03;-11.49;60.98
72756;SHT30;60881;55.002;73.232;2022-11-20T15:53:39;-11.56;60.62
72756;SHT30;60881;55.002;73.232;2022-11-20T15:56:16;-11.63;61.16
72756;SHT30;60881;55.002;73.232;2022-11-20T15:58:52;-11.72;61.38
72756;SHT30;60881;55.002;73.232;2022-11-20T16:01:19;-11.68;61.67
72756;SHT30;60881;55.002;73.232;2022-11-20T16:03:46;-11.68;61.96
72756;SHT30;60881;55.002;73.232;2022-11-20T16:06:12;-11.65;61.83
72756;SHT30;60881;55.002;73.232;2022-11-20T16:08:46;-11.66;61.69
72756;SHT30;60881;55.002;73.232;2022-11-20T16:11:16;-11.65;61.32
72756;SHT30;60881;55.002;73.232;2022-11-20T16:13:42;-11.73;61.42
72756;SHT30;60881;55.002;73.232;2022-11-20T16:18:56;-11.68;61.37
72756;SHT30;60881;55.002;73.232;2022-11-20T16:21:22;-11.76;61.81
72756;SHT30;60881;55.002;73.232;2022-11-20T16:23:59;-11.86;61.91
72756;SHT30;60881;55.002;73.232;2022-11-20T16:26:26;-11.91;62.22
72756;SHT30;60881;55.002;73.232;2022-11-20T16:28:53;-11.97;62.52
72756;SHT30;60881;55.002;73.232;2022-11-20T16:31:20;-11.96;62.53
72756;SHT30;60881;55.002;73.232;2022-11-20T16:33:49;-11.94;62.80
72756;SHT30;60881;55.002;73.232;2022-11-20T16:36:16;-11.96;62.58
72756;SHT30;60881;55.002;73.232;2022-11-20T16:38:53;-12.00;62.68
72756;SHT30;60881;55.002;73.232;2022-11-20T16:41:21;-12.06;63.25
72756;SHT30;60881;55.002;73.232;2022-11-20T16:43:48;-12.00;62.82
72756;SHT30;60881;55.002;73.232;2022-11-20T16:46:16;-12.03;62.89
72756;SHT30;60881;55.002;73.232;2022-11-20T16:48:55;-11.96;62.84
72756;SHT30;60881;55.002;73.232;2022-11-20T16:51:21;-11.86;62.65
72756;SHT30;60881;55.002;73.232;2022-11-20T16:53:49;-11.76;62.07
72756;SHT30;60881;55.002;73.232;2022-11-20T16:56:29;-11.65;61.91
72756;SHT30;60881;55.002;73.232;2022-11-20T16:58:56;-11.55;61.45
72756;SHT30;60881;55.002;73.232;2022-11-20T17:01:23;-11.55;61.39
72756;SHT30;60881;55.002;73.232;2022-11-20T17:06:22;-11.51;61.61
72756;SHT30;60881;55.002;73.232;2022-11-20T17:08:48;-11.42;61.30
72756;SHT30;60881;55.002;73.232;2022-11-20T17:11:16;-11.30;61.42
72756;SHT30;60881;55.002;73.232;2022-11-20T17:13:45;-11.32;61.85
72756;SHT30;60881;55.002;73.232;2022-11-20T17:16:21;-11.27;61.58
72756;SHT30;60881;55.002;73.232;2022-11-20T17:18:47;-11.18;61.26